sensor_id;sensor_type;location;lat;lon;timestamp;temperature;humidity
12833;DHT22;6483;51.310;4.462;2023-05-07T00:01:32;14.00;99.90
12833;DHT22;6483;51.310;4.462;2023-05-07T00:03:57;13.90;99.90
12833;DHT22;6483;51.310;4.462;2023-05-07T00:06:23;14.00;99.90
12833;DHT22;6483;51.310;4.462;2023-05-07T00:08:49;14.00;99.90
12833;DHT22;6483;51.310;4.462;2023-05-07T00:11:15;14.00;99.90
12833;DHT22;6483;51.310;4.462;2023-05-07T00:13:40;14.00;99.90
12833;DHT22;6483;51.310;4.462;2023-05-07T00:16:09;14.00;99.90
12833;DHT22;6483;51.310;4.462;2023-05-07T00:18:35;14.00;99.90
12833;DHT22;6483;51.310;4.462;2023-05-07T00:21:00;14.00;99.90
12833;DHT22;6483;51.310;4.462;2023-05-07T00:23:28;14.00;99.90
12833;DHT22;6483;51.310;4.462;2023-05-07T00:25:57;14.00;99.90
12833;DHT22;6483;51.310;4.462;2023-05-07T00:28:23;14.00;99.90
12833;DHT22;6483;51.310;4.462;2023-05-07T00:30:48;14.00;99.90
12833;DHT22;6483;51.310;4.462;2023-05-07T00:33:14;14.00;99.90
12833;DHT22;6483;51.310;4.462;2023-05-07T00:35:40;14.00;99.90
12833;DHT22;6483;51.310;4.462;2023-05-07T00:38:05;14.00;99.90
12833;DHT22;6483;51.310;4.462;2023-05-07T00:40:31;14.00;99.90
12833;DHT22;6483;51.310;4.462;2023-05-07T00:42:57;14.00;99.90
12833;DHT22;6483;51.310;4.462;2023-05-07T00:45:27;14.00;99.90
12833;DHT22;6483;51.310;4.462;2023-05-07T00:47:55;14.00;99.90
12833;DHT22;6483;51.310;4.462;2023-05-07T00:50:22;14.00;99.90
12833;DHT22;6483;51.310;4.462;2023-05-07T00:52:51;14.00;99.90
12833;DHT22;6483;51.310;4.462;2023-05-07T00:55:17;14.00;99.90
12833;DHT22;6483;51.310;4.462;2023-05-07T00:57:44;14.00;99.90
12833;DHT22;6483;51.310;4.462;2023-05-07T01:00:14;14.00;99.90
12833;DHT22;6483;51.310;4.462;2023-05-07T01:02:39;13.90;99.90
12833;DHT22;6483;51.310;4.462;2023-05-07T01:05:11;13.90;99.90
12833;DHT22;6483;51.310;4.462;2023-05-07T01:07:38;13.90;99.90
12833;DHT22;6483;51.310;4.462;2023-05-07T01:10:10;13.90;99.90
12833;DHT22;6483;51.310;4.462;2023-05-07T01:12:37;13.90;99.90
12833;DHT22;6483;51.310;4.462;2023-05-07T01:15:12;13.90;99.90
12833;DHT22;6483;51.310;4.462;2023-05-07T01:17:40;13.80;99.90
12833;DHT22;6483;51.310;4.462;2023-05-07T01:20:09;13.80;99.90
12833;DHT22;6483;51.310;4.462;2023-05-07T01:22:39;13.80;99.90
12833;DHT22;6483;51.310;4.462;2023-05-07T01:25:09;13.80;99.90
12833;DHT22;6483;51.310;4.462;2023-05-07T01:27:35;13.80;99.90
12833;DHT22;6483;51.310;4.462;2023-05-07T01:30:05;13.70;99.90
12833;DHT22;6483;51.310;4.462;2023-05-07T01:32:48;13.70;99.90
12833;DHT22;6483;51.310;4.462;2023-05-07T01:35:19;13.70;99.90
12833;DHT22;6483;51.310;4.462;2023-05-07T01:37:46;13.70;99.90
12833;DHT22;6483;51.310;4.462;2023-05-07T01:40:13;13.60;99.90
12833;DHT22;6483;51.310;4.462;2023-05-07T01:42:41;13.60;99.90
12833;DHT22;6483;51.310;4.462;2023-05-07T01:45:08;13.70;99.90
12833;DHT22;6483;51.310;4.462;2023-05-07T01:47:37;13.70;99.90
12833;DHT22;6483;51.310;4.462;2023-05-07T01:50:07;13.70;99.90
12833;DHT22;6483;51.310;4.462;2023-05-07T01:52:55;13.70;99.90
12833;DHT22;6483;51.310;4.462;2023-05-07T01:55:21;13.70;99.90
12833;DHT22;6483;51.310;4.462;2023-05-07T01:57:47;13.60;99.90
12833;DHT22;6483;51.310;4.462;2023-05-07T02:00:13;13.60;99.90
12833;DHT22;6483;51.310;4.462;2023-05-07T02:02:42;13.60;99.90
12833;DHT22;6483;51.310;4.462;2023-05-07T02:05:08;13.60;99.90
12833;DHT22;6483;51.310;4.462;2023-05-07T02:07:34;13.50;99.90
12833;DHT22;6483;51.310;4.462;2023-05-07T02:09:59;13.50;99.90
12833;DHT22;6483;51.310;4.462;2023-05-07T02:12:25;13.50;99.90
12833;DHT22;6483;51.310;4.462;2023-05-07T02:14:51;13.40;99.90
12833;DHT22;6483;51.310;4.462;2023-05-07T02:17:19;13.40;99.90
12833;DHT22;6483;51.310;4.462;2023-05-07T02:19:45;13.30;99.90
12833;DHT22;6483;51.310;4.462;2023-05-07T02:22:11;13.30;99.90
12833;DHT22;6483;51.310;4.462;2023-05-07T02:24:42;13.30;99.90
12833;DHT22;6483;51.310;4.462;2023-05-07T02:27:14;13.30;99.90
12833;DHT22;6483;51.310;4.462;2023-05-07T02:29:39;13.30;99.90
12833;DHT22;6483;51.310;4.462;2023-05-07T02:32:11;13.30;99.90
12833;DHT22;6483;51.310;4.462;2023-05-07T02:34:37;13.40;99.90
12833;DHT22;6483;51.310;4.462;2023-05-07T02:37:02;13.40;99.90
12833;DHT22;6483;51.310;4.462;2023-05-07T02:39:31;13.50;99.90
12833;DHT22;6483;51.310;4.462;2023-05-07T02:41:56;13.50;99.90
12833;DHT22;6483;51.310;4.462;2023-05-07T02:44:22;13.60;99.90
12833;DHT22;6483;51.310;4.462;2023-05-07T02:46:51;13.60;99.90
12833;DHT22;6483;51.310;4.462;2023-05-07T02:49:19;13.60;99.90
12833;DHT22;6483;51.310;4.462;2023-05-07T02:51:46;13.70;99.90
12833;DHT22;6483;51.310;4.462;2023-05-07T02:54:11;13.70;99.90
12833;DHT22;6483;51.310;4.462;2023-05-07T02:56:37;13.70;99.90
12833;DHT22;6483;51.310;4.462;2023-05-07T02:59:06;13.80;99.90
12833;DHT22;6483;51.310;4.462;2023-05-07T03:01:34;13.80;99.90
12833;DHT22;6483;51.310;4.462;2023-05-07T03:04:00;13.80;99.90
12833;DHT22;6483;51.310;4.462;2023-05-07T03:06:29;13.80;99.90
12833;DHT22;6483;51.310;4.462;2023-05-07T03:08:54;13.90;99.90
12833;DHT22;6483;51.310;4.462;2023-05-07T03:11:23;13.90;99.90
12833;DHT22;6483;51.310;4.462;2023-05-07T03:13:51;14.00;99.90
12833;DHT22;6483;51.310;4.462;2023-05-07T03:16:20;14.00;99.90
12833;DHT22;6483;51.310;4.462;2023-05-07T03:18:46;14.00;99.90
12833;DHT22;6483;51.310;4.462;2023-05-07T03:21:11;14.00;99.90
12833;DHT22;6483;51.310;4.462;2023-05-07T03:23:41;14.00;99.90
12833;DHT22;6483;51.310;4.462;2023-05-07T03:26:06;14.00;99.90
12833;DHT22;6483;51.310;4.462;2023-05-07T03:28:32;14.00;99.90
12833;DHT22;6483;51.310;4.462;2023-05-07T03:31:01;14.10;99.90
12833;DHT22;6483;51.310;4.462;2023-05-07T03:33:38;14.10;99.90
12833;DHT22;6483;51.310;4.462;2023-05-07T03:36:04;14.10;99.90
12833;DHT22;6483;51.310;4.462;2023-05-07T03:38:30;14.10;99.90
12833;DHT22;6483;51.310;4.462;2023-05-07T03:40:55;14.10;99.90
12833;DHT22;6483;51.310;4.462;2023-05-07T03:43:24;14.10;99.90
12833;DHT22;6483;51.310;4.462;2023-05-07T03:45:49;14.10;99.90
12833;DHT22;6483;51.310;4.462;2023-05-07T03:48:15;14.10;99.90
12833;DHT22;6483;51.310;4.462;2023-05-07T03:50:43;14.10;99.90
12833;DHT22;6483;51.310;4.462;2023-05-07T03:53:09;14.10;99.90
12833;DHT22;6483;51.310;4.462;2023-05-07T03:55:37;14.10;99.90
12833;DHT22;6483;51.310;4.462;2023-05-07T03:58:03;14.10;99.90
12833;DHT22;6483;51.310;4.462;2023-05-07T04:00:29;14.10;99.90
12833;DHT22;6483;51.310;4.462;2023-05-07T04:03:01;14.10;99.90
12833;DHT22;6483;51.310;4.462;2023-05-07T04:05:28;14.10;99.90
12833;DHT22;6483;51.310;4.462;2023-05-07T04:07:53;14.00;99.90
12833;DHT22;6483;51.310;4.462;2023-05-07T04:10:19;14.00;99.90
12833;DHT22;6483;51.310;4.462;2023-05-07T04:12:45;14.00;99.90
12833;DHT22;6483;51.310;4.462;2023-05-07T04:15:12;14.00;99.90
12833;DHT22;6483;51.310;4.462;2023-05-07T04:17:37;14.00;99.90
12833;DHT22;6483;51.310;4.462;2023-05-07T04:20:08;14.00;99.90
12833;DHT22;6483;51.310;4.462;2023-05-07T04:22:37;14.00;99.90
12833;DHT22;6483;51.310;4.462;2023-05-07T04:25:03;14.10;99.90
12833;DHT22;6483;51.310;4.462;2023-05-07T04:27:29;14.10;99.90
12833;DHT22;6483;51.310;4.462;2023-05-07T04:29:55;14.20;99.90
12833;DHT22;6483;51.310;4.462;2023-05-07T04:32:26;14.20;99.90
12833;DHT22;6483;51.310;4.462;2023-05-07T04:34:52;14.20;99.90
12833;DHT22;6483;51.310;4.462;2023-05-07T04:37:18;14.20;99.90
12833;DHT22;6483;51.310;4.462;2023-05-07T04:39:44;14.30;99.90
12833;DHT22;6483;51.310;4.462;2023-05-07T04:42:13;14.30;99.90
12833;DHT22;6483;51.310;4.462;2023-05-07T04:44:41;14.40;99.90
12833;DHT22;6483;51.310;4.462;2023-05-07T04:47:06;14.40;99.90
12833;DHT22;6483;51.310;4.462;2023-05-07T04:49:35;14.50;99.90
12833;DHT22;6483;51.310;4.462;2023-05-07T04:52:01;14.50;99.90
12833;DHT22;6483;51.310;4.462;2023-05-07T04:54:31;14.60;99.90
12833;DHT22;6483;51.310;4.462;2023-05-07T04:56:57;14.60;99.90
12833;DHT22;6483;51.310;4.462;2023-05-07T04:59:23;14.60;99.90
12833;DHT22;6483;51.310;4.462;2023-05-07T05:01:49;14.60;99.90
12833;DHT22;6483;51.310;4.462;2023-05-07T05:04:14;14.70;99.90
12833;DHT22;6483;51.310;4.462;2023-05-07T05:06:41;14.70;99.90
12833;DHT22;6483;51.310;4.462;2023-05-07T05:09:09;14.70;99.90
12833;DHT22;6483;51.310;4.462;2023-05-07T05:11:36;14.70;99.90
12833;DHT22;6483;51.310;4.462;2023-05-07T05:14:02;14.80;99.90
12833;DHT22;6483;51.310;4.462;2023-05-07T05:16:28;14.90;99.90
12833;DHT22;6483;51.310;4.462;2023-05-07T05:18:54;14.90;99.90
12833;DHT22;6483;51.310;4.462;2023-05-07T05:21:23;14.90;99.90
12833;DHT22;6483;51.310;4.462;2023-05-07T05:23:49;14.90;99.90
12833;DHT22;6483;51.310;4.462;2023-05-07T05:26:15;15.00;99.90
12833;DHT22;6483;51.310;4.462;2023-05-07T05:28:41;15.00;99.90
12833;DHT22;6483;51.310;4.462;2023-05-07T05:31:11;15.10;99.90
12833;DHT22;6483;51.310;4.462;2023-05-07T05:33:37;15.10;99.90
12833;DHT22;6483;51.310;4.462;2023-05-07T05:36:03;15.20;99.90
12833;DHT22;6483;51.310;4.462;2023-05-07T05:38:32;15.30;99.90
12833;DHT22;6483;51.310;4.462;2023-05-07T05:40:57;15.40;99.90
12833;DHT22;6483;51.310;4.462;2023-05-07T05:43:32;15.40;99.90
12833;DHT22;6483;51.310;4.462;2023-05-07T05:45:59;15.40;99.90
12833;DHT22;6483;51.310;4.462;2023-05-07T05:48:29;15.30;99.90
12833;DHT22;6483;51.310;4.462;2023-05-07T05:50:58;15.20;99.90
12833;DHT22;6483;51.310;4.462;2023-05-07T05:53:26;15.20;99.90
12833;DHT22;6483;51.310;4.462;2023-05-07T05:55:55;15.20;99.90
12833;DHT22;6483;51.310;4.462;2023-05-07T05:58:20;15.30;99.90
12833;DHT22;6483;51.310;4.462;2023-05-07T06:00:46;15.40;99.90
12833;DHT22;6483;51.310;4.462;2023-05-07T06:03:13;15.40;99.90
12833;DHT22;6483;51.310;4.462;2023-05-07T06:05:39;15.50;99.90
12833;DHT22;6483;51.310;4.462;2023-05-07T06:08:08;15.60;99.90
12833;DHT22;6483;51.310;4.462;2023-05-07T06:10:38;15.70;99.90
12833;DHT22;6483;51.310;4.462;2023-05-07T06:13:04;15.80;99.90
12833;DHT22;6483;51.310;4.462;2023-05-07T06:15:29;15.90;99.90
12833;DHT22;6483;51.310;4.462;2023-05-07T06:17:58;16.00;99.90
12833;DHT22;6483;51.310;4.462;2023-05-07T06:20:24;16.10;99.90
12833;DHT22;6483;51.310;4.462;2023-05-07T06:22:49;16.20;99.90
12833;DHT22;6483;51.310;4.462;2023-05-07T06:25:16;16.20;99.90
12833;DHT22;6483;51.310;4.462;2023-05-07T06:27:42;16.30;99.90
12833;DHT22;6483;51.310;4.462;2023-05-07T06:30:09;16.40;99.90
12833;DHT22;6483;51.310;4.462;2023-05-07T06:32:36;16.50;99.90
12833;DHT22;6483;51.310;4.462;2023-05-07T06:35:02;16.60;99.90
12833;DHT22;6483;51.310;4.462;2023-05-07T06:37:29;16.70;99.90
12833;DHT22;6483;51.310;4.462;2023-05-07T06:39:55;16.90;99.90
12833;DHT22;6483;51.310;4.462;2023-05-07T06:42:24;17.10;99.90
12833;DHT22;6483;51.310;4.462;2023-05-07T06:44:52;17.30;99.90
12833;DHT22;6483;51.310;4.462;2023-05-07T06:47:18;17.50;99.90
12833;DHT22;6483;51.310;4.462;2023-05-07T06:49:43;17.60;99.90
12833;DHT22;6483;51.310;4.462;2023-05-07T06:52:13;17.30;99.90
12833;DHT22;6483;51.310;4.462;2023-05-07T06:54:39;17.40;99.90
12833;DHT22;6483;51.310;4.462;2023-05-07T06:57:04;17.60;99.90
12833;DHT22;6483;51.310;4.462;2023-05-07T06:59:30;17.50;99.90
12833;DHT22;6483;51.310;4.462;2023-05-07T07:01:56;17.60;99.90
12833;DHT22;6483;51.310;4.462;2023-05-07T07:04:22;17.90;99.90
12833;DHT22;6483;51.310;4.462;2023-05-07T07:06:53;18.10;99.90
12833;DHT22;6483;51.310;4.462;2023-05-07T07:09:19;18.60;99.90
12833;DHT22;6483;51.310;4.462;2023-05-07T07:11:44;18.80;99.90
12833;DHT22;6483;51.310;4.462;2023-05-07T07:14:10;19.20;99.90
12833;DHT22;6483;51.310;4.462;2023-05-07T07:16:36;19.50;99.90
12833;DHT22;6483;51.310;4.462;2023-05-07T07:19:01;19.80;99.90
12833;DHT22;6483;51.310;4.462;2023-05-07T07:21:27;20.00;99.90
12833;DHT22;6483;51.310;4.462;2023-05-07T07:23:53;20.10;99.90
12833;DHT22;6483;51.310;4.462;2023-05-07T07:26:18;20.00;99.90
12833;DHT22;6483;51.310;4.462;2023-05-07T07:28:45;20.10;99.90
12833;DHT22;6483;51.310;4.462;2023-05-07T07:31:11;20.10;99.90
12833;DHT22;6483;51.310;4.462;2023-05-07T07:33:37;20.30;99.90
12833;DHT22;6483;51.310;4.462;2023-05-07T07:36:05;20.40;99.90
12833;DHT22;6483;51.310;4.462;2023-05-07T07:38:32;20.50;99.90
12833;DHT22;6483;51.310;4.462;2023-05-07T07:41:00;20.50;99.90
12833;DHT22;6483;51.310;4.462;2023-05-07T07:43:25;20.50;99.90
12833;DHT22;6483;51.310;4.462;2023-05-07T07:45:51;20.20;99.90
12833;DHT22;6483;51.310;4.462;2023-05-07T07:48:19;20.20;99.90
12833;DHT22;6483;51.310;4.462;2023-05-07T07:50:49;20.20;99.90
12833;DHT22;6483;51.310;4.462;2023-05-07T07:53:19;20.30;99.90
12833;DHT22;6483;51.310;4.462;2023-05-07T07:55:45;20.30;99.90
12833;DHT22;6483;51.310;4.462;2023-05-07T07:58:11;20.00;99.90
12833;DHT22;6483;51.310;4.462;2023-05-07T08:00:40;20.00;99.90
12833;DHT22;6483;51.310;4.462;2023-05-07T08:03:09;19.80;99.90
12833;DHT22;6483;51.310;4.462;2023-05-07T08:05:34;19.50;99.90
12833;DHT22;6483;51.310;4.462;2023-05-07T08:08:00;19.70;99.90
12833;DHT22;6483;51.310;4.462;2023-05-07T08:10:29;19.70;99.90
12833;DHT22;6483;51.310;4.462;2023-05-07T08:12:55;19.70;99.90
12833;DHT22;6483;51.310;4.462;2023-05-07T08:15:21;19.60;99.90
12833;DHT22;6483;51.310;4.462;2023-05-07T08:17:47;19.70;99.90
12833;DHT22;6483;51.310;4.462;2023-05-07T08:20:13;19.40;99.90
12833;DHT22;6483;51.310;4.462;2023-05-07T08:22:39;19.40;99.90
12833;DHT22;6483;51.310;4.462;2023-05-07T08:25:11;19.40;99.90
12833;DHT22;6483;51.310;4.462;2023-05-07T08:27:37;19.20;99.90
12833;DHT22;6483;51.310;4.462;2023-05-07T08:30:06;19.20;99.90
12833;DHT22;6483;51.310;4.462;2023-05-07T08:32:32;19.30;99.90
12833;DHT22;6483;51.310;4.462;2023-05-07T08:35:00;19.30;99.90
12833;DHT22;6483;51.310;4.462;2023-05-07T08:37:27;19.30;99.90
12833;DHT22;6483;51.310;4.462;2023-05-07T08:39:54;19.30;99.90
12833;DHT22;6483;51.310;4.462;2023-05-07T08:42:23;19.30;99.90
12833;DHT22;6483;51.310;4.462;2023-05-07T08:44:54;19.20;99.90
12833;DHT22;6483;51.310;4.462;2023-05-07T08:47:28;19.20;99.90
12833;DHT22;6483;51.310;4.462;2023-05-07T08:50:04;19.20;99.90
12833;DHT22;6483;51.310;4.462;2023-05-07T08:52:31;19.20;99.90
12833;DHT22;6483;51.310;4.462;2023-05-07T08:54:57;19.00;99.90
12833;DHT22;6483;51.310;4.462;2023-05-07T08:57:24;19.10;99.90
12833;DHT22;6483;51.310;4.462;2023-05-07T08:59:50;19.10;99.90
12833;DHT22;6483;51.310;4.462;2023-05-07T09:02:15;19.10;99.90
12833;DHT22;6483;51.310;4.462;2023-05-07T09:04:45;19.20;99.90
12833;DHT22;6483;51.310;4.462;2023-05-07T09:07:11;19.30;99.90
12833;DHT22;6483;51.310;4.462;2023-05-07T09:09:37;19.30;99.90
12833;DHT22;6483;51.310;4.462;2023-05-07T09:12:08;19.40;99.90
12833;DHT22;6483;51.310;4.462;2023-05-07T09:14:35;19.60;99.90
12833;DHT22;6483;51.310;4.462;2023-05-07T09:17:01;19.70;99.90
12833;DHT22;6483;51.310;4.462;2023-05-07T09:19:27;19.70;99.90
12833;DHT22;6483;51.310;4.462;2023-05-07T09:22:03;19.70;99.90
12833;DHT22;6483;51.310;4.462;2023-05-07T09:24:33;19.60;99.90
12833;DHT22;6483;51.310;4.462;2023-05-07T09:27:04;19.60;99.90
12833;DHT22;6483;51.310;4.462;2023-05-07T09:29:33;19.60;99.90
12833;DHT22;6483;51.310;4.462;2023-05-07T09:32:05;19.30;99.90
12833;DHT22;6483;51.310;4.462;2023-05-07T09:34:31;19.20;99.90
12833;DHT22;6483;51.310;4.462;2023-05-07T09:37:00;18.90;99.90
12833;DHT22;6483;51.310;4.462;2023-05-07T09:39:26;18.80;99.90
12833;DHT22;6483;51.310;4.462;2023-05-07T09:41:51;18.70;99.90
12833;DHT22;6483;51.310;4.462;2023-05-07T09:44:20;18.70;99.90
12833;DHT22;6483;51.310;4.462;2023-05-07T09:46:53;18.60;99.90
12833;DHT22;6483;51.310;4.462;2023-05-07T09:49:25;18.80;99.90
12833;DHT22;6483;51.310;4.462;2023-05-07T09:51:55;18.90;99.90
12833;DHT22;6483;51.310;4.462;2023-05-07T09:54:22;18.90;99.90
12833;DHT22;6483;51.310;4.462;2023-05-07T09:56:49;18.80;99.90
12833;DHT22;6483;51.310;4.462;2023-05-07T09:59:17;18.70;99.90
12833;DHT22;6483;51.310;4.462;2023-05-07T10:01:44;18.40;99.90
12833;DHT22;6483;51.310;4.462;2023-05-07T10:04:10;18.40;99.90
12833;DHT22;6483;51.310;4.462;2023-05-07T10:06:37;18.30;99.90
12833;DHT22;6483;51.310;4.462;2023-05-07T10:09:04;18.40;99.90
12833;DHT22;6483;51.310;4.462;2023-05-07T10:11:34;18.40;99.90
12833;DHT22;6483;51.310;4.462;2023-05-07T10:14:02;18.30;99.90
12833;DHT22;6483;51.310;4.462;2023-05-07T10:16:36;18.30;99.90
12833;DHT22;6483;51.310;4.462;2023-05-07T10:19:03;18.50;99.90
12833;DHT22;6483;51.310;4.462;2023-05-07T10:21:30;18.70;99.90
12833;DHT22;6483;51.310;4.462;2023-05-07T10:24:12;18.90;99.90
12833;DHT22;6483;51.310;4.462;2023-05-07T10:26:47;19.00;99.90
12833;DHT22;6483;51.310;4.462;2023-05-07T10:32:21;18.80;99.90
12833;DHT22;6483;51.310;4.462;2023-05-07T10:34:54;20.10;99.90
12833;DHT22;6483;51.310;4.462;2023-05-07T10:37:24;18.50;99.90
12833;DHT22;6483;51.310;4.462;2023-05-07T10:39:51;18.50;99.90
12833;DHT22;6483;51.310;4.462;2023-05-07T10:42:17;18.70;99.90
12833;DHT22;6483;51.310;4.462;2023-05-07T10:44:43;18.90;99.90
12833;DHT22;6483;51.310;4.462;2023-05-07T10:47:16;19.10;99.90
12833;DHT22;6483;51.310;4.462;2023-05-07T10:52:21;19.50;99.90
12833;DHT22;6483;51.310;4.462;2023-05-07T10:57:43;19.80;99.90
12833;DHT22;6483;51.310;4.462;2023-05-07T11:05:29;19.40;99.90
12833;DHT22;6483;51.310;4.462;2023-05-07T11:07:59;19.50;99.90
12833;DHT22;6483;51.310;4.462;2023-05-07T11:10:54;19.50;99.90
12833;DHT22;6483;51.310;4.462;2023-05-07T11:13:46;19.70;99.90
12833;DHT22;6483;51.310;4.462;2023-05-07T11:16:20;19.60;99.90
12833;DHT22;6483;51.310;4.462;2023-05-07T11:19:12;20.10;99.90
12833;DHT22;6483;51.310;4.462;2023-05-07T11:21:42;20.10;99.90
12833;DHT22;6483;51.310;4.462;2023-05-07T11:24:09;20.10;99.90
12833;DHT22;6483;51.310;4.462;2023-05-07T11:26:50;20.10;99.90
12833;DHT22;6483;51.310;4.462;2023-05-07T11:29:22;19.90;99.90
12833;DHT22;6483;51.310;4.462;2023-05-07T11:31:52;19.70;99.90
12833;DHT22;6483;51.310;4.462;2023-05-07T11:34:31;19.70;99.90
12833;DHT22;6483;51.310;4.462;2023-05-07T11:36:58;19.50;99.90
12833;DHT22;6483;51.310;4.462;2023-05-07T11:39:32;19.80;99.90
12833;DHT22;6483;51.310;4.462;2023-05-07T11:42:31;19.80;99.90
12833;DHT22;6483;51.310;4.462;2023-05-07T11:45:00;20.00;99.90
12833;DHT22;6483;51.310;4.462;2023-05-07T11:47:30;19.90;99.90
12833;DHT22;6483;51.310;4.462;2023-05-07T11:50:06;19.80;99.90
12833;DHT22;6483;51.310;4.462;2023-05-07T11:52:33;19.80;99.90
12833;DHT22;6483;51.310;4.462;2023-05-07T11:55:00;19.90;99.90
12833;DHT22;6483;51.310;4.462;2023-05-07T11:57:27;20.00;99.90
12833;DHT22;6483;51.310;4.462;2023-05-07T11:59:57;20.10;99.90
12833;DHT22;6483;51.310;4.462;2023-05-07T12:02:25;20.10;99.90
12833;DHT22;6483;51.310;4.462;2023-05-07T12:04:52;20.50;99.90
12833;DHT22;6483;51.310;4.462;2023-05-07T12:07:18;20.70;99.90
12833;DHT22;6483;51.310;4.462;2023-05-07T12:09:47;20.60;99.90
12833;DHT22;6483;51.310;4.462;2023-05-07T12:12:14;20.50;99.90
12833;DHT22;6483;51.310;4.462;2023-05-07T12:14:44;20.30;99.90
12833;DHT22;6483;51.310;4.462;2023-05-07T12:17:14;20.40;99.90
12833;DHT22;6483;51.310;4.462;2023-05-07T12:19:42;20.50;99.90
12833;DHT22;6483;51.310;4.462;2023-05-07T12:22:08;20.80;99.90
12833;DHT22;6483;51.310;4.462;2023-05-07T12:24:57;20.70;99.90
12833;DHT22;6483;51.310;4.462;2023-05-07T12:27:22;20.60;99.90
12833;DHT22;6483;51.310;4.462;2023-05-07T12:29:49;20.80;99.90
12833;DHT22;6483;51.310;4.462;2023-05-07T12:32:16;21.00;99.90
12833;DHT22;6483;51.310;4.462;2023-05-07T12:34:43;21.30;99.90
12833;DHT22;6483;51.310;4.462;2023-05-07T12:37:09;21.20;99.90
12833;DHT22;6483;51.310;4.462;2023-05-07T12:39:36;21.30;99.90
12833;DHT22;6483;51.310;4.462;2023-05-07T12:42:02;21.70;99.90
12833;DHT22;6483;51.310;4.462;2023-05-07T12:44:32;22.00;80.40
12833;DHT22;6483;51.310;4.462;2023-05-07T12:47:04;22.40;29.80
12833;DHT22;6483;51.310;4.462;2023-05-07T12:49:30;22.00;15.80
12833;DHT22;6483;51.310;4.462;2023-05-07T12:51:56;21.90;27.40
12833;DHT22;6483;51.310;4.462;2023-05-07T12:54:37;22.20;52.30
12833;DHT22;6483;51.310;4.462;2023-05-07T12:57:08;22.30;14.10
12833;DHT22;6483;51.310;4.462;2023-05-07T12:59:41;22.20;3.40
12833;DHT22;6483;51.310;4.462;2023-05-07T13:02:08;21.80;2.50
12833;DHT22;6483;51.310;4.462;2023-05-07T13:04:37;22.10;1.00
12833;DHT22;6483;51.310;4.462;2023-05-07T13:07:03;22.30;1.50
12833;DHT22;6483;51.310;4.462;2023-05-07T13:09:29;22.10;1.00
12833;DHT22;6483;51.310;4.462;2023-05-07T13:11:55;21.80;1.00
12833;DHT22;6483;51.310;4.462;2023-05-07T13:14:20;22.30;1.00
12833;DHT22;6483;51.310;4.462;2023-05-07T13:16:53;22.10;1.00
12833;DHT22;6483;51.310;4.462;2023-05-07T13:19:18;22.50;1.00
12833;DHT22;6483;51.310;4.462;2023-05-07T13:21:44;23.20;1.00
12833;DHT22;6483;51.310;4.462;2023-05-07T13:24:10;22.90;1.00
12833;DHT22;6483;51.310;4.462;2023-05-07T13:26:36;23.00;1.00
12833;DHT22;6483;51.310;4.462;2023-05-07T13:29:01;23.00;1.00
12833;DHT22;6483;51.310;4.462;2023-05-07T13:31:27;23.30;1.00
12833;DHT22;6483;51.310;4.462;2023-05-07T13:33:52;22.60;1.00
12833;DHT22;6483;51.310;4.462;2023-05-07T13:36:18;22.50;1.00
12833;DHT22;6483;51.310;4.462;2023-05-07T13:38:47;22.40;1.00
12833;DHT22;6483;51.310;4.462;2023-05-07T13:41:15;22.70;1.00
12833;DHT22;6483;51.310;4.462;2023-05-07T13:43:41;23.80;1.00
12833;DHT22;6483;51.310;4.462;2023-05-07T13:46:06;22.30;1.00
12833;DHT22;6483;51.310;4.462;2023-05-07T13:48:32;22.70;1.00
12833;DHT22;6483;51.310;4.462;2023-05-07T13:50:58;22.80;1.00
12833;DHT22;6483;51.310;4.462;2023-05-07T13:53:23;23.00;1.00
12833;DHT22;6483;51.310;4.462;2023-05-07T13:55:49;23.10;1.00
12833;DHT22;6483;51.310;4.462;2023-05-07T13:58:15;23.00;1.00
12833;DHT22;6483;51.310;4.462;2023-05-07T14:00:41;23.80;1.00
12833;DHT22;6483;51.310;4.462;2023-05-07T14:03:13;23.80;1.00
12833;DHT22;6483;51.310;4.462;2023-05-07T14:05:38;24.20;1.00
12833;DHT22;6483;51.310;4.462;2023-05-07T14:08:04;24.70;1.00
12833;DHT22;6483;51.310;4.462;2023-05-07T14:10:33;24.80;1.00
12833;DHT22;6483;51.310;4.462;2023-05-07T14:13:00;24.00;1.00
12833;DHT22;6483;51.310;4.462;2023-05-07T14:15:25;23.30;1.00
12833;DHT22;6483;51.310;4.462;2023-05-07T14:17:51;23.20;1.00
12833;DHT22;6483;51.310;4.462;2023-05-07T14:20:20;22.60;1.00
12833;DHT22;6483;51.310;4.462;2023-05-07T14:22:45;22.40;1.00
12833;DHT22;6483;51.310;4.462;2023-05-07T14:25:11;22.50;1.00
12833;DHT22;6483;51.310;4.462;2023-05-07T14:27:40;22.70;1.00
12833;DHT22;6483;51.310;4.462;2023-05-07T14:30:06;22.60;1.00
12833;DHT22;6483;51.310;4.462;2023-05-07T14:32:32;22.30;1.00
12833;DHT22;6483;51.310;4.462;2023-05-07T14:34:58;22.60;1.00
12833;DHT22;6483;51.310;4.462;2023-05-07T14:37:45;23.30;1.00
12833;DHT22;6483;51.310;4.462;2023-05-07T14:40:12;23.90;1.00
12833;DHT22;6483;51.310;4.462;2023-05-07T14:42:40;24.70;1.00
12833;DHT22;6483;51.310;4.462;2023-05-07T14:45:06;25.60;1.00
12833;DHT22;6483;51.310;4.462;2023-05-07T14:47:31;26.40;1.00
12833;DHT22;6483;51.310;4.462;2023-05-07T14:49:57;26.50;1.00
12833;DHT22;6483;51.310;4.462;2023-05-07T14:52:23;26.80;1.00
12833;DHT22;6483;51.310;4.462;2023-05-07T14:54:49;27.40;1.00
12833;DHT22;6483;51.310;4.462;2023-05-07T14:57:21;27.80;1.00
12833;DHT22;6483;51.310;4.462;2023-05-07T14:59:46;28.20;1.00
12833;DHT22;6483;51.310;4.462;2023-05-07T15:02:12;28.10;1.00
12833;DHT22;6483;51.310;4.462;2023-05-07T15:04:39;27.50;1.00
12833;DHT22;6483;51.310;4.462;2023-05-07T15:07:17;26.70;1.00
12833;DHT22;6483;51.310;4.462;2023-05-07T15:09:43;25.90;1.00
12833;DHT22;6483;51.310;4.462;2023-05-07T15:12:10;25.40;1.00
12833;DHT22;6483;51.310;4.462;2023-05-07T15:14:40;25.30;1.00
12833;DHT22;6483;51.310;4.462;2023-05-07T15:17:10;25.30;1.00
12833;DHT22;6483;51.310;4.462;2023-05-07T15:19:38;25.00;1.00
12833;DHT22;6483;51.310;4.462;2023-05-07T15:22:07;24.80;1.00
12833;DHT22;6483;51.310;4.462;2023-05-07T15:24:33;24.80;1.00
12833;DHT22;6483;51.310;4.462;2023-05-07T15:27:02;25.10;1.00
12833;DHT22;6483;51.310;4.462;2023-05-07T15:29:28;25.20;1.00
12833;DHT22;6483;51.310;4.462;2023-05-07T15:32:00;25.40;1.00
12833;DHT22;6483;51.310;4.462;2023-05-07T15:34:25;25.60;1.00
12833;DHT22;6483;51.310;4.462;2023-05-07T15:36:51;26.00;1.00
12833;DHT22;6483;51.310;4.462;2023-05-07T15:39:17;26.90;1.00
12833;DHT22;6483;51.310;4.462;2023-05-07T15:41:42;27.40;1.00
12833;DHT22;6483;51.310;4.462;2023-05-07T15:44:08;26.90;1.00
12833;DHT22;6483;51.310;4.462;2023-05-07T15:46:35;26.40;1.00
12833;DHT22;6483;51.310;4.462;2023-05-07T15:49:02;26.00;1.00
12833;DHT22;6483;51.310;4.462;2023-05-07T15:51:34;25.70;1.00
12833;DHT22;6483;51.310;4.462;2023-05-07T15:54:00;25.20;1.00
12833;DHT22;6483;51.310;4.462;2023-05-07T15:56:35;24.70;1.00
12833;DHT22;6483;51.310;4.462;2023-05-07T15:59:00;24.50;1.00
12833;DHT22;6483;51.310;4.462;2023-05-07T16:01:28;25.00;1.00
12833;DHT22;6483;51.310;4.462;2023-05-07T16:03:54;26.20;1.00
12833;DHT22;6483;51.310;4.462;2023-05-07T16:06:19;28.20;1.00
12833;DHT22;6483;51.310;4.462;2023-05-07T16:08:45;28.50;1.00